Time;durP1;ratioP1;P1;durP2;ratioP2;P2;SDS_P1;SDS_P2;PMS_P1;PMS_P2;Temp;Humidity;BMP_temperature;BMP_pressure;BME280_temperature;BME280_humidity;BME280_pressure;Samples;Min_cycle;Max_cycle;Signal;HPM_P1;HPM_P2
2021/05/23 00:03:01;;;;;;;1.70;1.07;;;;;;;;;;4938879;28;20232;-74
2021/05/23 00:06:05;;;;;;;2.87;1.20;;;;;;;;;;4974020;28;20207;-74
2021/05/23 00:09:09;;;;;;;3.73;1.00;;;;;;;;;;4949029;28;20190;-74
2021/05/23 00:12:13;;;;;;;2.27;1.07;;;;;;;;;;4969453;28;20215;-74
2021/05/23 00:15:28;;;;;;;2.30;1.40;;;;;;;;;;4944590;28;20183;-74
2021/05/23 00:18:39;;;;;;;2.07;1.20;;;;;;;;;;4974614;28;20198;-74
2021/05/23 00:21:44;;;;;;;2.73;1.20;;;;;;;;;;4962788;28;20195;-74
2021/05/23 00:24:48;;;;;;;1.53;1.13;;;;;;;;;;4955804;28;20192;-73
2021/05/23 00:27:52;;;;;;;2.47;1.40;;;;;;;;;;4943831;29;20654;-74
2021/05/23 00:31:01;;;;;;;1.97;1.20;;;;;;;;;;4943639;29;20191;-74
2021/05/23 00:34:05;;;;;;;3.43;1.27;;;;;;;;;;4969002;28;20195;-74
2021/05/23 00:37:09;;;;;;;2.23;1.23;;;;;;;;;;4974379;28;20183;-74
2021/05/23 00:40:13;;;;;;;1.80;1.10;;;;;;;;;;4962729;28;20194;-74
2021/05/23 00:43:20;;;;;;;1.13;0.90;;;;;;;;;;4966779;28;20223;-74
2021/05/23 00:46:24;;;;;;;2.83;1.03;;;;;;;;;;4955285;29;20207;-74
2021/05/23 00:49:28;;;;;;;1.17;0.93;;;;;;;;;;4955318;29;20191;-73
2021/05/23 00:52:32;;;;;;;3.07;1.17;;;;;;;;;;4955863;28;20210;-74
2021/05/23 00:55:38;;;;;;;2.20;1.00;;;;;;;;;;4948908;28;20195;-74
2021/05/23 00:58:42;;;;;;;4.63;1.00;;;;;;;;;;4967202;28;20194;-73
2021/05/23 01:01:46;;;;;;;3.10;1.40;;;;;;;;;;4962453;28;20183;-73
2021/05/23 01:04:50;;;;;;;4.43;0.90;;;;;;;;;;4972791;28;20206;-74
2021/05/23 01:07:55;;;;;;;2.40;1.10;;;;;;;;;;4973287;28;20190;-74
2021/05/23 01:11:24;;;;;;;1.97;1.20;;;;;;;;;;4962533;28;20518;-74
2021/05/23 01:14:47;;;;;;;3.63;1.20;;;;;;;;;;4958997;28;20187;-74
2021/05/23 01:17:51;;;;;;;3.27;1.10;;;;;;;;;;4954966;28;20196;-74
2021/05/23 01:20:58;;;;;;;2.47;0.93;;;;;;;;;;4942938;29;20203;-74
2021/05/23 01:24:05;;;;;;;6.37;1.90;;;;;;;;;;4965037;28;20206;-74
2021/05/23 01:27:12;;;;;;;3.20;1.80;;;;;;;;;;4974698;28;20515;-74
2021/05/23 01:30:25;;;;;;;5.97;2.17;;;;;;;;;;4973946;28;20174;-73
2021/05/23 01:33:29;;;;;;;3.00;1.40;;;;;;;;;;4963550;28;20219;-74
2021/05/23 01:36:41;;;;;;;3.10;1.23;;;;;;;;;;4954580;29;20196;-74
2021/05/23 01:39:45;;;;;;;1.77;1.23;;;;;;;;;;4954752;28;20196;-74
2021/05/23 01:42:49;;;;;;;5.03;1.13;;;;;;;;;;4957728;28;20222;-74
2021/05/23 01:45:55;;;;;;;2.00;1.20;;;;;;;;;;4974276;28;20531;-74
2021/05/23 01:49:00;;;;;;;2.50;1.30;;;;;;;;;;4975253;28;20203;-74
2021/05/23 01:52:04;;;;;;;1.80;1.00;;;;;;;;;;4977528;28;20215;-74
2021/05/23 01:55:13;;;;;;;1.63;0.93;;;;;;;;;;4957876;29;20187;-74
2021/05/23 01:58:17;;;;;;;3.00;1.10;;;;;;;;;;4946461;29;20635;-74
2021/05/23 02:01:22;;;;;;;2.43;1.20;;;;;;;;;;4958032;29;20200;-74
2021/05/23 02:04:26;;;;;;;0.90;0.80;;;;;;;;;;4957130;28;20235;-74
2021/05/23 02:07:31;;;;;;;1.70;0.87;;;;;;;;;;4947754;28;20195;-74
2021/05/23 02:10:35;;;;;;;2.17;0.83;;;;;;;;;;4956849;28;20651;-74
2021/05/23 02:13:40;;;;;;;1.80;0.70;;;;;;;;;;4957450;28;20223;-74
2021/05/23 02:16:43;;;;;;;2.03;0.90;;;;;;;;;;4975376;28;20199;-74
2021/05/23 02:19:51;;;;;;;1.33;0.80;;;;;;;;;;4958404;28;20200;-74
2021/05/23 02:22:58;;;;;;;1.43;0.70;;;;;;;;;;4959502;28;20231;-74
2021/05/23 02:26:02;;;;;;;1.80;0.77;;;;;;;;;;4964299;28;20196;-74
2021/05/23 02:29:06;;;;;;;6.03;1.27;;;;;;;;;;4969554;28;20194;-74
2021/05/23 02:32:10;;;;;;;3.30;0.80;;;;;;;;;;4953277;28;20218;-74
2021/05/23 02:35:15;;;;;;;3.10;0.97;;;;;;;;;;4970712;28;20651;-74
2021/05/23 02:38:20;;;;;;;2.30;0.70;;;;;;;;;;4956835;29;20183;-74
2021/05/23 02:41:25;;;;;;;2.00;0.70;;;;;;;;;;4961566;28;20544;-74
2021/05/23 02:44:29;;;;;;;1.67;0.90;;;;;;;;;;4975715;28;20214;-74
2021/05/23 02:47:34;;;;;;;2.10;1.00;;;;;;;;;;4976317;28;20183;-74
2021/05/23 02:50:40;;;;;;;0.70;0.60;;;;;;;;;;4976247;28;20179;-74
2021/05/23 02:53:44;;;;;;;1.87;0.93;;;;;;;;;;4976388;28;20559;-74
2021/05/23 02:56:49;;;;;;;3.20;1.30;;;;;;;;;;4975754;28;20191;-74
2021/05/23 02:59:53;;;;;;;1.87;0.83;;;;;;;;;;4974787;28;20182;-74
2021/05/23 03:02:58;;;;;;;2.57;1.10;;;;;;;;;;4958797;28;20223;-74
2021/05/23 03:06:02;;;;;;;1.63;0.93;;;;;;;;;;4956849;29;20544;-73
2021/05/23 03:09:06;;;;;;;2.60;0.80;;;;;;;;;;4956612;28;20192;-74
2021/05/23 03:12:11;;;;;;;1.60;1.00;;;;;;;;;;4965091;28;20702;-74
2021/05/23 03:15:18;;;;;;;1.83;0.80;;;;;;;;;;4976075;28;20175;-74
2021/05/23 03:18:22;;;;;;;2.43;0.80;;;;;;;;;;4975472;28;20198;-74
2021/05/23 03:21:27;;;;;;;1.77;0.80;;;;;;;;;;4975905;28;20183;-74
2021/05/23 03:24:32;;;;;;;3.10;1.00;;;;;;;;;;4944069;28;20215;-74
2021/05/23 03:27:37;;;;;;;4.23;1.00;;;;;;;;;;4956454;28;20187;-74
2021/05/23 03:30:43;;;;;;;2.07;1.00;;;;;;;;;;4974075;28;20187;-74
2021/05/23 03:33:47;;;;;;;1.33;0.83;;;;;;;;;;4948081;29;20699;-74
2021/05/23 03:36:51;;;;;;;2.33;0.87;;;;;;;;;;4955332;29;20183;-74
2021/05/23 03:39:55;;;;;;;1.40;0.87;;;;;;;;;;4956537;29;20180;-73
2021/05/23 03:42:59;;;;;;;1.60;0.97;;;;;;;;;;4956252;28;20219;-74
2021/05/23 03:46:04;;;;;;;1.37;0.97;;;;;;;;;;4956170;29;20184;-74
2021/05/23 03:49:08;;;;;;;5.23;0.87;;;;;;;;;;4962091;28;20190;-74
2021/05/23 03:52:12;;;;;;;1.90;0.73;;;;;;;;;;4971534;28;20730;-74
2021/05/23 03:55:17;;;;;;;0.80;0.70;;;;;;;;;;4966661;28;20187;-74
2021/05/23 03:58:21;;;;;;;1.07;0.63;;;;;;;;;;4975278;28;20175;-74
2021/05/23 04:01:25;;;;;;;1.37;0.60;;;;;;;;;;4959951;28;20195;-75
2021/05/23 04:04:46;;;;;;;1.17;0.70;;;;;;;;;;4968190;28;20222;-74
2021/05/23 04:07:51;;;;;;;1.43;0.70;;;;;;;;;;4948670;29;20195;-74
2021/05/23 04:11:02;;;;;;;2.33;0.83;;;;;;;;;;4964858;28;20199;-74
2021/05/23 04:14:06;;;;;;;1.60;0.60;;;;;;;;;;4974691;28;20191;-74
2021/05/23 04:17:10;;;;;;;1.37;0.87;;;;;;;;;;4956471;28;20196;-74
2021/05/23 04:20:17;;;;;;;1.07;0.60;;;;;;;;;;4956870;28;20195;-74
2021/05/23 04:23:23;;;;;;;1.63;0.70;;;;;;;;;;4943379;29;20223;-74
2021/05/23 04:26:27;;;;;;;0.90;0.70;;;;;;;;;;4955570;29;20187;-74
2021/05/23 04:29:33;;;;;;;2.33;1.10;;;;;;;;;;4924620;29;20188;-74
2021/05/23 04:32:37;;;;;;;2.57;0.80;;;;;;;;;;4936501;29;20556;-74
2021/05/23 04:35:43;;;;;;;1.57;0.70;;;;;;;;;;4941031;28;20195;-74
2021/05/23 04:38:48;;;;;;;2.73;0.90;;;;;;;;;;4945482;29;20195;-74
2021/05/23 04:41:53;;;;;;;1.60;0.80;;;;;;;;;;4928517;28;20235;-75
2021/05/23 04:44:56;;;;;;;1.30;0.70;;;;;;;;;;4962697;28;20215;-74
2021/05/23 04:48:01;;;;;;;1.17;0.63;;;;;;;;;;4962471;28;20198;-73
2021/05/23 04:51:05;;;;;;;1.00;0.67;;;;;;;;;;4959600;28;20199;-74
2021/05/23 04:54:09;;;;;;;2.73;0.77;;;;;;;;;;4942678;28;20182;-74
2021/05/23 04:57:14;;;;;;;1.00;0.70;;;;;;;;;;4962132;28;20533;-74
2021/05/23 05:00:18;;;;;;;0.87;0.50;;;;;;;;;;4966121;28;20183;-74
2021/05/23 05:03:22;;;;;;;0.93;0.60;;;;;;;;;;4954186;29;20219;-74
2021/05/23 05:06:26;;;;;;;0.80;0.70;;;;;;;;;;4993496;23;20234;-74
2021/05/23 05:09:31;;;;;;;0.93;0.67;;;;;;;;;;4994617;28;20182;-74
2021/05/23 05:12:35;;;;;;;2.33;0.80;;;;;;;;;;5013207;28;20569;-74
2021/05/23 05:15:40;;;;;;;1.37;0.80;;;;;;;;;;5010493;28;20190;-75
2021/05/23 05:18:44;;;;;;;0.73;0.73;;;;;;;;;;4993726;28;20182;-75
2021/05/23 05:21:48;;;;;;;1.83;0.70;;;;;;;;;;4981365;28;20645;-74
2021/05/23 05:24:52;;;;;;;1.07;0.70;;;;;;;;;;4997411;28;20206;-74
2021/05/23 05:27:56;;;;;;;0.90;0.60;;;;;;;;;;4997400;28;20182;-72
2021/05/23 05:31:00;;;;;;;0.93;0.60;;;;;;;;;;5000240;28;20201;-72
2021/05/23 05:34:05;;;;;;;1.17;0.50;;;;;;;;;;5016968;28;20181;-73
2021/05/23 05:37:10;;;;;;;1.70;0.70;;;;;;;;;;4998960;28;20194;-72
2021/05/23 05:40:15;;;;;;;1.87;0.80;;;;;;;;;;5017118;28;20181;-73
2021/05/23 05:43:19;;;;;;;1.93;0.83;;;;;;;;;;5004608;28;20225;-72
2021/05/23 05:46:23;;;;;;;1.50;0.80;;;;;;;;;;4993236;28;20179;-72
2021/05/23 05:49:28;;;;;;;2.43;0.60;;;;;;;;;;4970793;28;20198;-72
2021/05/23 05:52:32;;;;;;;1.57;0.80;;;;;;;;;;5004639;28;20549;-73
2021/05/23 05:55:36;;;;;;;1.30;0.70;;;;;;;;;;5011768;28;20198;-72
2021/05/23 05:58:40;;;;;;;1.03;0.70;;;;;;;;;;4996672;28;20609;-72
2021/05/23 06:01:44;;;;;;;0.70;0.60;;;;;;;;;;4984883;28;20189;-72
2021/05/23 06:04:50;;;;;;;0.90;0.70;;;;;;;;;;4996780;28;20209;-72
2021/05/23 06:07:54;;;;;;;0.40;0.40;;;;;;;;;;4977001;28;20186;-72
2021/05/23 06:10:59;;;;;;;1.00;0.70;;;;;;;;;;4981143;28;20548;-74
2021/05/23 06:14:03;;;;;;;3.90;1.07;;;;;;;;;;5015876;28;20193;-73
2021/05/23 06:17:07;;;;;;;0.70;0.70;;;;;;;;;;4965210;28;20183;-73
2021/05/23 06:20:13;;;;;;;0.67;0.50;;;;;;;;;;4987506;28;20194;-72
2021/05/23 06:23:17;;;;;;;1.17;0.80;;;;;;;;;;5007154;28;20213;-72
2021/05/23 06:26:25;;;;;;;1.50;0.90;;;;;;;;;;5008461;28;20185;-73
2021/05/23 06:29:29;;;;;;;1.67;0.90;;;;;;;;;;4979241;28;20527;-72
2021/05/23 06:32:33;;;;;;;0.97;0.70;;;;;;;;;;5009456;28;20222;-72
2021/05/23 06:35:38;;;;;;;0.63;0.53;;;;;;;;;;5001547;28;20201;-72
2021/05/23 06:38:42;;;;;;;0.87;0.50;;;;;;;;;;5015502;28;20519;-72
2021/05/23 06:41:46;;;;;;;1.90;0.53;;;;;;;;;;4976861;28;20183;-72
2021/05/23 06:44:50;;;;;;;0.87;0.60;;;;;;;;;;4998965;28;20554;-72
2021/05/23 06:47:55;;;;;;;1.23;0.60;;;;;;;;;;4998971;28;20197;-71
2021/05/23 06:51:00;;;;;;;0.80;0.67;;;;;;;;;;4989152;28;20185;-71
2021/05/23 06:54:04;;;;;;;0.83;0.67;;;;;;;;;;4998235;28;20194;-71
2021/05/23 06:57:09;;;;;;;0.73;0.50;;;;;;;;;;4983817;28;20179;-71
2021/05/23 07:00:14;;;;;;;2.87;0.70;;;;;;;;;;5002225;28;20185;-71
2021/05/23 07:03:18;;;;;;;2.60;0.40;;;;;;;;;;4991954;28;20221;-72
2021/05/23 07:06:23;;;;;;;0.73;0.50;;;;;;;;;;4995504;28;20218;-72
2021/05/23 07:09:27;;;;;;;1.73;0.73;;;;;;;;;;4999144;28;20197;-71
2021/05/23 07:12:31;;;;;;;1.67;1.37;;;;;;;;;;4998519;28;20214;-72
2021/05/23 07:15:35;;;;;;;1.40;1.17;;;;;;;;;;4983347;28;20182;-72
2021/05/23 07:18:39;;;;;;;0.87;0.73;;;;;;;;;;4983783;28;20179;-72
2021/05/23 07:21:43;;;;;;;1.57;0.70;;;;;;;;;;4982415;28;20535;-71
2021/05/23 07:24:47;;;;;;;1.27;0.57;;;;;;;;;;4986097;28;20213;-72
2021/05/23 07:27:52;;;;;;;1.30;0.50;;;;;;;;;;5014876;28;20185;-72
2021/05/23 07:30:56;;;;;;;2.30;1.30;;;;;;;;;;5014843;28;20185;-72
2021/05/23 07:34:00;;;;;;;1.23;0.90;;;;;;;;;;5014802;28;20177;-72
2021/05/23 07:37:04;;;;;;;3.07;1.10;;;;;;;;;;4974663;28;20177;-71
2021/05/23 07:40:10;;;;;;;2.07;0.87;;;;;;;;;;5015314;28;20182;-72
2021/05/23 07:43:14;;;;;;;1.73;0.83;;;;;;;;;;4999767;28;20570;-73
2021/05/23 07:46:18;;;;;;;1.10;0.80;;;;;;;;;;4993985;28;20206;-73
2021/05/23 07:49:22;;;;;;;1.13;0.70;;;;;;;;;;5002238;28;20193;-72
2021/05/23 07:52:26;;;;;;;0.80;0.60;;;;;;;;;;4983303;28;20209;-72
2021/05/23 07:55:31;;;;;;;2.97;1.20;;;;;;;;;;4999150;28;20182;-73
2021/05/23 07:58:35;;;;;;;1.23;1.10;;;;;;;;;;5010665;28;20189;-72
2021/05/23 08:01:39;;;;;;;2.03;1.20;;;;;;;;;;4992486;28;20193;-73
2021/05/23 08:04:44;;;;;;;2.13;1.93;;;;;;;;;;4978949;28;20649;-73
2021/05/23 08:07:48;;;;;;;1.57;0.80;;;;;;;;;;4990906;28;20186;-74
2021/05/23 08:10:52;;;;;;;1.77;1.20;;;;;;;;;;4984481;28;20197;-75
2021/05/23 08:13:56;;;;;;;2.47;2.07;;;;;;;;;;4996375;28;20220;-75
2021/05/23 08:17:02;;;;;;;1.00;0.90;;;;;;;;;;5010228;28;20178;-75
2021/05/23 08:20:07;;;;;;;2.37;1.43;;;;;;;;;;4998181;28;20181;-75
2021/05/23 08:23:11;;;;;;;3.47;1.77;;;;;;;;;;4986769;28;20985;-75
2021/05/23 08:26:16;;;;;;;5.90;5.40;;;;;;;;;;4990476;28;20202;-72
2021/05/23 08:29:20;;;;;;;3.37;2.63;;;;;;;;;;4978670;28;20198;-72
2021/05/23 08:32:26;;;;;;;2.77;1.80;;;;;;;;;;4990344;28;20213;-73
2021/05/23 08:35:30;;;;;;;1.83;1.20;;;;;;;;;;4990514;28;20642;-72
2021/05/23 08:38:34;;;;;;;51.20;23.40;;;;;;;;;;4973728;28;20278;-74
2021/05/23 08:41:38;;;;;;;3.20;1.57;;;;;;;;;;5005116;28;20204;-73
2021/05/23 08:44:43;;;;;;;1.10;0.80;;;;;;;;;;4990174;28;20178;-73
2021/05/23 08:47:47;;;;;;;2.57;1.00;;;;;;;;;;4998706;28;20650;-73
2021/05/23 08:50:52;;;;;;;1.63;0.60;;;;;;;;;;4993979;28;20190;-73
2021/05/23 08:53:56;;;;;;;3.13;1.00;;;;;;;;;;4993478;28;20221;-73
2021/05/23 08:57:02;;;;;;;3.13;1.00;;;;;;;;;;4993766;28;20526;-73
2021/05/23 09:00:08;;;;;;;1.67;1.10;;;;;;;;;;4999943;28;20663;-74
2021/05/23 09:03:15;;;;;;;3.23;0.87;;;;;;;;;;4992184;28;20213;-73
2021/05/23 09:06:35;;;;;;;1.43;0.70;;;;;;;;;;5017089;28;20221;-73
2021/05/23 09:09:48;;;;;;;0.73;0.60;;;;;;;;;;5005201;28;20193;-74
2021/05/23 09:12:52;;;;;;;2.20;0.93;;;;;;;;;;4997656;28;20229;-73
2021/05/23 09:16:03;;;;;;;1.73;0.90;;;;;;;;;;4997600;28;20178;-73
2021/05/23 09:19:07;;;;;;;1.10;0.80;;;;;;;;;;4966218;28;20183;-73
2021/05/23 09:22:13;;;;;;;2.27;0.80;;;;;;;;;;4977662;28;20218;-73
2021/05/23 09:25:33;;;;;;;1.77;1.00;;;;;;;;;;4977867;28;20206;-73
2021/05/23 09:28:39;;;;;;;2.23;0.90;;;;;;;;;;4977618;28;20183;-73
2021/05/23 09:31:46;;;;;;;1.80;1.20;;;;;;;;;;4971045;28;20190;-73
2021/05/23 09:34:52;;;;;;;1.67;1.07;;;;;;;;;;5015980;28;20521;-73
2021/05/23 09:38:07;;;;;;;1.37;0.90;;;;;;;;;;4997466;28;20630;-73
2021/05/23 09:41:40;;;;;;;0.93;0.70;;;;;;;;;;5014703;28;20194;-73
2021/05/23 09:44:45;;;;;;;1.70;0.73;;;;;;;;;;5004514;28;20186;-74
2021/05/23 09:47:58;;;;;;;1.60;0.67;;;;;;;;;;4990303;28;20181;-73
2021/05/23 09:51:14;;;;;;;1.43;0.60;;;;;;;;;;5016472;28;20654;-73
2021/05/23 09:54:18;;;;;;;2.00;0.60;;;;;;;;;;4977644;28;20195;-74
2021/05/23 09:57:24;;;;;;;2.30;0.70;;;;;;;;;;4977541;28;20202;-72
2021/05/23 10:00:39;;;;;;;0.60;0.53;;;;;;;;;;4987824;28;20202;-73
2021/05/23 10:03:44;;;;;;;6.27;1.20;;;;;;;;;;4961429;28;20214;-74
2021/05/23 10:06:59;;;;;;;1.33;0.93;;;;;;;;;;4996307;28;20222;-74
2021/05/23 10:10:04;;;;;;;2.80;0.83;;;;;;;;;;4984482;28;20190;-74
2021/05/23 10:13:09;;;;;;;1.10;0.63;;;;;;;;;;4986196;28;20222;-75
2021/05/23 10:16:14;;;;;;;0.57;0.47;;;;;;;;;;4985226;28;20175;-75
2021/05/23 10:19:40;;;;;;;1.53;0.50;;;;;;;;;;5014185;28;20193;-74
2021/05/23 10:22:44;;;;;;;1.03;0.53;;;;;;;;;;5004149;28;20222;-74
2021/05/23 10:25:55;;;;;;;0.43;0.33;;;;;;;;;;4977378;28;20539;-74
2021/05/23 10:29:00;;;;;;;1.77;0.50;;;;;;;;;;4990154;28;20206;-74
2021/05/23 10:32:09;;;;;;;1.43;0.30;;;;;;;;;;5003746;28;20217;-73
2021/05/23 10:35:17;;;;;;;0.50;0.40;;;;;;;;;;5016743;28;20177;-73
2021/05/23 10:38:23;;;;;;;0.67;0.30;;;;;;;;;;4977920;28;20226;-73
2021/05/23 10:41:28;;;;;;;0.37;0.20;;;;;;;;;;4972993;28;20206;-74
2021/05/23 10:44:59;;;;;;;0.90;0.40;;;;;;;;;;5001005;28;20557;-73
2021/05/23 10:48:18;;;;;;;8.80;4.87;;;;;;;;;;4986583;28;20182;-73
2021/05/23 10:51:23;;;;;;;8.03;4.90;;;;;;;;;;4991416;28;20190;-73
2021/05/23 10:54:27;;;;;;;2.40;1.63;;;;;;;;;;4979757;28;20187;-73
2021/05/23 10:57:42;;;;;;;7.30;3.60;;;;;;;;;;4977401;28;20186;-74
2021/05/23 11:00:50;;;;;;;4.30;1.73;;;;;;;;;;4999229;28;20194;-73
2021/05/23 11:04:08;;;;;;;3.40;1.90;;;;;;;;;;4983581;28;20218;-73
2021/05/23 11:07:13;;;;;;;3.07;2.27;;;;;;;;;;5013340;23;20233;-73
2021/05/23 11:10:19;;;;;;;2.13;0.87;;;;;;;;;;5001247;28;20190;-74
2021/05/23 11:13:23;;;;;;;3.10;1.50;;;;;;;;;;5000095;28;20218;-73
2021/05/23 11:16:28;;;;;;;2.70;1.13;;;;;;;;;;4994526;28;20178;-74
2021/05/23 11:19:32;;;;;;;2.43;0.53;;;;;;;;;;4995250;28;20186;-73
2021/05/23 11:22:36;;;;;;;1.23;0.63;;;;;;;;;;4986470;28;20222;-73
2021/05/23 11:25:40;;;;;;;1.23;0.70;;;;;;;;;;4995032;28;20182;-72
2021/05/23 11:28:49;;;;;;;3.37;0.93;;;;;;;;;;4995492;28;20202;-73
2021/05/23 11:31:53;;;;;;;2.20;1.03;;;;;;;;;;4994457;28;20194;-74
2021/05/23 11:34:57;;;;;;;1.83;0.50;;;;;;;;;;5009480;28;20197;-73
2021/05/23 11:38:02;;;;;;;1.00;0.43;;;;;;;;;;5014372;28;20547;-73
2021/05/23 11:41:07;;;;;;;2.97;0.40;;;;;;;;;;5014853;28;20182;-72
2021/05/23 11:44:13;;;;;;;1.10;0.47;;;;;;;;;;5005575;28;20525;-73
2021/05/23 11:47:19;;;;;;;1.67;0.40;;;;;;;;;;5013780;28;20206;-73
2021/05/23 11:50:27;;;;;;;1.23;0.53;;;;;;;;;;5013631;28;20649;-73
2021/05/23 11:53:48;;;;;;;1.20;0.50;;;;;;;;;;5011751;28;20213;-72
2021/05/23 11:56:52;;;;;;;0.67;0.50;;;;;;;;;;5015048;28;20174;-73
2021/05/23 11:59:56;;;;;;;2.03;0.80;;;;;;;;;;5011772;28;20189;-74
2021/05/23 12:03:01;;;;;;;2.03;0.90;;;;;;;;;;5007011;28;20218;-76
2021/05/23 12:06:14;;;;;;;2.00;0.80;;;;;;;;;;4990689;28;20585;-75
2021/05/23 12:09:28;;;;;;;1.07;0.70;;;;;;;;;;4994177;28;20194;-75
2021/05/23 12:12:32;;;;;;;1.20;1.10;;;;;;;;;;5009578;28;20572;-75
2021/05/23 12:15:36;;;;;;;0.60;0.60;;;;;;;;;;5000387;28;20193;-74
2021/05/23 12:18:46;;;;;;;1.33;0.50;;;;;;;;;;4991656;28;20202;-75
2021/05/23 12:21:51;;;;;;;0.37;0.30;;;;;;;;;;4990277;28;20179;-75
2021/05/23 12:24:58;;;;;;;2.33;0.50;;;;;;;;;;4990526;28;20538;-74
2021/05/23 12:28:02;;;;;;;0.97;0.30;;;;;;;;;;5008166;28;20213;-74
2021/05/23 12:31:07;;;;;;;1.43;0.50;;;;;;;;;;4987912;28;20546;-73
2021/05/23 12:34:13;;;;;;;4.47;3.37;;;;;;;;;;4999149;28;20197;-74
2021/05/23 12:37:21;;;;;;;0.47;0.30;;;;;;;;;;4997463;28;20186;-73
2021/05/23 12:40:29;;;;;;;1.70;0.30;;;;;;;;;;5000194;28;20186;-74
2021/05/23 12:43:35;;;;;;;1.13;0.60;;;;;;;;;;5009912;28;20217;-74
2021/05/23 12:46:38;;;;;;;0.73;0.33;;;;;;;;;;5003017;28;20550;-74
2021/05/23 12:49:46;;;;;;;0.90;0.33;;;;;;;;;;4994920;28;20533;-74
2021/05/23 12:52:52;;;;;;;0.60;0.40;;;;;;;;;;4972398;28;20227;-74
2021/05/23 12:56:06;;;;;;;0.97;0.50;;;;;;;;;;4976660;28;20193;-74
2021/05/23 12:59:15;;;;;;;0.30;0.30;;;;;;;;;;4978436;28;20198;-74
2021/05/23 13:02:22;;;;;;;1.73;0.40;;;;;;;;;;4990999;28;20226;-73
2021/05/23 13:05:26;;;;;;;0.90;0.37;;;;;;;;;;4991121;28;20182;-76
2021/05/23 13:08:32;;;;;;;0.60;0.40;;;;;;;;;;4993696;28;20214;-76
2021/05/23 13:11:47;;;;;;;0.87;0.50;;;;;;;;;;4974558;28;20680;-74
2021/05/23 13:14:59;;;;;;;0.23;0.20;;;;;;;;;;4991606;28;20179;-74
2021/05/23 13:18:05;;;;;;;1.13;0.40;;;;;;;;;;4989258;28;20695;-74
2021/05/23 13:21:18;;;;;;;0.60;0.40;;;;;;;;;;4970699;28;20187;-74
2021/05/23 13:24:27;;;;;;;0.63;0.40;;;;;;;;;;4970622;28;20194;-74
2021/05/23 13:27:31;;;;;;;0.80;0.40;;;;;;;;;;4992512;28;20213;-75
2021/05/23 13:30:35;;;;;;;0.50;0.40;;;;;;;;;;4999897;28;20193;-73
2021/05/23 13:33:41;;;;;;;0.70;0.30;;;;;;;;;;5007640;28;20700;-74
2021/05/23 13:36:46;;;;;;;0.50;0.30;;;;;;;;;;4969386;28;20503;-73
2021/05/23 13:39:50;;;;;;;0.30;0.30;;;;;;;;;;5005793;28;20189;-74
2021/05/23 13:42:54;;;;;;;1.63;0.30;;;;;;;;;;5009556;28;20217;-73
2021/05/23 13:45:59;;;;;;;0.80;0.30;;;;;;;;;;5011801;28;20201;-73
2021/05/23 13:49:05;;;;;;;1.90;0.40;;;;;;;;;;5012569;28;20193;-74
2021/05/23 13:52:10;;;;;;;1.53;0.40;;;;;;;;;;5003290;28;20565;-74
2021/05/23 13:55:14;;;;;;;0.30;0.30;;;;;;;;;;5008352;28;20185;-74
2021/05/23 13:58:18;;;;;;;1.33;0.40;;;;;;;;;;5012355;28;20182;-73
2021/05/23 14:01:23;;;;;;;0.67;0.30;;;;;;;;;;4998745;28;20202;-73
2021/05/23 14:04:27;;;;;;;1.37;0.43;;;;;;;;;;5000738;28;20189;-73
2021/05/23 14:07:31;;;;;;;2.10;0.40;;;;;;;;;;4992699;28;20225;-74
2021/05/23 14:10:35;;;;;;;0.90;0.30;;;;;;;;;;4993683;28;20190;-74
2021/05/23 14:13:40;;;;;;;5.10;0.50;;;;;;;;;;4995430;28;20235;-73
2021/05/23 14:16:44;;;;;;;1.53;0.50;;;;;;;;;;4998425;28;20198;-74
2021/05/23 14:19:48;;;;;;;1.30;0.30;;;;;;;;;;5007515;28;20197;-73
2021/05/23 14:22:54;;;;;;;0.67;0.40;;;;;;;;;;4992051;28;20218;-74
2021/05/23 14:25:58;;;;;;;0.60;0.33;;;;;;;;;;4993862;28;20194;-73
2021/05/23 14:29:03;;;;;;;0.70;0.40;;;;;;;;;;4981831;28;20198;-73
2021/05/23 14:32:07;;;;;;;1.47;0.40;;;;;;;;;;4985984;28;20226;-73
2021/05/23 14:35:13;;;;;;;0.53;0.30;;;;;;;;;;4989169;28;20202;-74
2021/05/23 14:38:18;;;;;;;1.40;0.67;;;;;;;;;;4993343;28;20186;-74
2021/05/23 14:41:22;;;;;;;1.13;0.90;;;;;;;;;;4993263;28;20183;-74
2021/05/23 14:44:27;;;;;;;2.50;1.73;;;;;;;;;;4981685;28;20653;-74
2021/05/23 14:47:31;;;;;;;4.77;2.43;;;;;;;;;;4993328;28;20217;-74
2021/05/23 14:50:36;;;;;;;1.90;0.80;;;;;;;;;;4992729;28;20202;-74
2021/05/23 14:53:41;;;;;;;1.13;0.50;;;;;;;;;;4992075;28;20222;-74
2021/05/23 14:56:45;;;;;;;1.07;0.50;;;;;;;;;;4992080;28;20186;-74
2021/05/23 14:59:52;;;;;;;2.40;0.47;;;;;;;;;;4992236;28;20182;-74
2021/05/23 15:02:56;;;;;;;1.73;0.60;;;;;;;;;;4994429;28;20222;-73
2021/05/23 15:06:01;;;;;;;4.17;0.50;;;;;;;;;;4995519;28;20188;-73
2021/05/23 15:09:05;;;;;;;1.30;0.40;;;;;;;;;;4995310;28;20219;-73
2021/05/23 15:12:09;;;;;;;0.30;0.30;;;;;;;;;;4995785;28;20227;-73
2021/05/23 15:15:14;;;;;;;0.57;0.40;;;;;;;;;;4972581;28;20186;-73
2021/05/23 15:18:19;;;;;;;1.13;0.50;;;;;;;;;;4995849;28;20503;-72
2021/05/23 15:21:23;;;;;;;0.60;0.40;;;;;;;;;;4995427;28;20191;-73
2021/05/23 15:24:29;;;;;;;0.53;0.40;;;;;;;;;;4995086;28;20542;-72
2021/05/23 15:31:10;;;;;;;1.20;0.60;;;;;;;;;;4995333;28;20625;-72
2021/05/23 15:34:14;;;;;;;2.13;0.40;;;;;;;;;;4995173;28;20538;-72
2021/05/23 15:37:19;;;;;;;1.43;0.40;;;;;;;;;;4995395;28;20637;-73
2021/05/23 15:40:24;;;;;;;1.00;0.50;;;;;;;;;;4995449;28;20191;-72
2021/05/23 15:43:28;;;;;;;2.60;0.50;;;;;;;;;;4993920;28;20562;-72
2021/05/23 15:46:32;;;;;;;3.73;0.70;;;;;;;;;;4994731;28;20201;-72
2021/05/23 15:49:36;;;;;;;2.03;0.60;;;;;;;;;;4994881;28;20182;-72
2021/05/23 15:52:41;;;;;;;0.37;0.30;;;;;;;;;;4994926;28;20222;-72
2021/05/23 15:55:46;;;;;;;0.93;0.40;;;;;;;;;;4994379;28;20194;-72
2021/05/23 15:58:50;;;;;;;2.83;0.50;;;;;;;;;;4994300;28;20190;-72
2021/05/23 16:01:54;;;;;;;0.60;0.40;;;;;;;;;;4993147;28;20197;-72
2021/05/23 16:05:05;;;;;;;2.80;0.50;;;;;;;;;;4994952;28;20646;-72
2021/05/23 16:08:09;;;;;;;0.93;0.50;;;;;;;;;;4993737;28;20681;-72
2021/05/23 16:11:16;;;;;;;1.03;0.50;;;;;;;;;;4993978;28;20664;-72
2021/05/23 16:14:20;;;;;;;4.40;0.60;;;;;;;;;;4975397;28;20191;-72
2021/05/23 16:17:25;;;;;;;4.33;0.40;;;;;;;;;;4989248;28;20194;-72
2021/05/23 16:20:29;;;;;;;9.63;0.87;;;;;;;;;;4993535;28;20178;-73
2021/05/23 16:23:34;;;;;;;0.97;0.40;;;;;;;;;;4994222;28;20721;-72
2021/05/23 16:26:38;;;;;;;0.93;0.47;;;;;;;;;;4994040;28;20194;-72
2021/05/23 16:29:42;;;;;;;2.30;0.80;;;;;;;;;;4981276;28;20182;-72
2021/05/23 16:32:47;;;;;;;2.57;0.83;;;;;;;;;;4994638;28;20225;-72
2021/05/23 16:35:52;;;;;;;3.90;0.60;;;;;;;;;;4995362;28;20202;-72
2021/05/23 16:38:56;;;;;;;13.30;1.17;;;;;;;;;;4992949;28;20183;-72
2021/05/23 16:42:01;;;;;;;85.63;5.20;;;;;;;;;;4994520;28;20221;-72
2021/05/23 16:45:06;;;;;;;4.93;0.73;;;;;;;;;;4984941;28;20208;-73
2021/05/23 16:48:11;;;;;;;1.47;0.47;;;;;;;;;;4994301;28;20210;-72
2021/05/23 16:51:15;;;;;;;2.27;0.40;;;;;;;;;;4978024;28;20190;-72
2021/05/23 16:54:19;;;;;;;0.57;0.40;;;;;;;;;;4994327;28;20530;-72
2021/05/23 16:57:23;;;;;;;5.03;0.80;;;;;;;;;;4994823;28;20182;-72
2021/05/23 17:00:28;;;;;;;0.90;0.50;;;;;;;;;;4994610;28;20186;-72
2021/05/23 17:03:32;;;;;;;1.53;0.60;;;;;;;;;;4990513;28;20701;-73
2021/05/23 17:06:36;;;;;;;2.30;0.77;;;;;;;;;;4994417;28;20198;-73
2021/05/23 17:09:41;;;;;;;2.23;0.63;;;;;;;;;;4991735;23;20242;-74
2021/05/23 17:12:46;;;;;;;3.13;1.23;;;;;;;;;;4974713;28;20223;-74
2021/05/23 17:15:50;;;;;;;1.17;0.70;;;;;;;;;;4973596;28;20199;-73
2021/05/23 17:18:55;;;;;;;0.87;0.60;;;;;;;;;;4975879;28;20171;-74
2021/05/23 17:21:59;;;;;;;0.90;0.50;;;;;;;;;;4966774;28;20218;-76
2021/05/23 17:25:09;;;;;;;2.50;0.47;;;;;;;;;;4972585;28;20195;-75
2021/05/23 17:28:14;;;;;;;2.30;0.60;;;;;;;;;;4947337;29;20211;-75
2021/05/23 17:31:18;;;;;;;1.20;0.40;;;;;;;;;;4957427;28;20195;-74
2021/05/23 17:34:22;;;;;;;0.83;0.50;;;;;;;;;;4973708;28;20182;-76
2021/05/23 17:37:26;;;;;;;2.23;0.33;;;;;;;;;;4978439;28;20195;-76
2021/05/23 17:40:31;;;;;;;0.60;0.50;;;;;;;;;;4958446;28;20188;-76
2021/05/23 17:43:36;;;;;;;1.13;0.67;;;;;;;;;;4954697;29;20227;-75
2021/05/23 17:46:40;;;;;;;1.77;0.70;;;;;;;;;;4982353;28;20195;-75
2021/05/23 17:49:44;;;;;;;1.00;0.80;;;;;;;;;;4960828;28;20673;-75
2021/05/23 17:52:49;;;;;;;1.10;0.67;;;;;;;;;;4974380;28;20230;-74
2021/05/23 17:55:54;;;;;;;1.40;0.90;;;;;;;;;;4972651;28;20207;-74
2021/05/23 17:58:59;;;;;;;5.37;1.00;;;;;;;;;;4964898;28;20195;-74
2021/05/23 18:02:03;;;;;;;1.80;1.20;;;;;;;;;;4969385;28;20223;-74
2021/05/23 18:05:19;;;;;;;1.70;0.70;;;;;;;;;;4973344;28;20202;-75
2021/05/23 18:08:23;;;;;;;3.37;0.80;;;;;;;;;;4973621;28;20222;-75
2021/05/23 18:11:27;;;;;;;1.33;0.80;;;;;;;;;;4961363;28;20195;-74
2021/05/23 18:14:32;;;;;;;1.83;0.87;;;;;;;;;;4961751;28;20199;-75
2021/05/23 18:17:36;;;;;;;1.30;0.90;;;;;;;;;;4973888;28;20650;-74
2021/05/23 18:20:41;;;;;;;2.03;0.83;;;;;;;;;;4977868;28;20196;-75
2021/05/23 18:23:45;;;;;;;1.57;0.90;;;;;;;;;;4953978;28;20219;-75
2021/05/23 18:26:50;;;;;;;1.20;0.70;;;;;;;;;;4958106;28;20199;-75
2021/05/23 18:29:57;;;;;;;2.63;0.90;;;;;;;;;;4941426;28;20207;-75
2021/05/23 18:33:02;;;;;;;1.10;0.67;;;;;;;;;;4954021;29;20227;-75
2021/05/23 18:36:07;;;;;;;2.70;0.70;;;;;;;;;;4955240;28;20195;-75
2021/05/23 18:39:32;;;;;;;0.67;0.60;;;;;;;;;;4953240;29;20179;-74